createdAt,value
2018-07-17T00:00:18.281Z,3.53
2018-07-17T00:02:46.869Z,3.43
2018-07-17T00:05:15.268Z,4.87
2018-07-17T00:07:43.685Z,4.03
2018-07-17T00:10:12.120Z,5.90
2018-07-17T00:12:40.662Z,4.00
2018-07-17T00:15:09.065Z,4.10
2018-07-17T00:17:37.837Z,3.83
2018-07-17T00:20:06.281Z,7.50
2018-07-17T00:22:34.684Z,3.50
2018-07-17T00:25:03.316Z,4.37
2018-07-17T00:27:31.774Z,6.70
2018-07-17T00:30:00.213Z,4.00
2018-07-17T00:32:28.609Z,3.30
2018-07-17T00:34:57.044Z,4.27
2018-07-17T00:37:25.490Z,3.50
2018-07-17T00:39:53.947Z,3.57
2018-07-17T00:42:22.373Z,3.60
2018-07-17T00:44:51.040Z,4.53
2018-07-17T00:47:19.463Z,3.43
2018-07-17T00:49:47.832Z,4.07
2018-07-17T00:52:16.276Z,4.90
2018-07-17T00:54:44.715Z,4.63
2018-07-17T00:57:13.187Z,3.77
2018-07-17T00:59:41.632Z,4.77
2018-07-17T01:02:15.468Z,5.80
2018-07-17T01:04:49.168Z,4.63
2018-07-17T01:07:23.142Z,4.63
2018-07-17T01:09:56.880Z,4.17
2018-07-17T01:12:24.481Z,4.07
2018-07-17T01:15:03.624Z,3.70
2018-07-17T01:17:33.057Z,3.63
2018-07-17T01:20:01.437Z,3.97
2018-07-17T01:22:29.884Z,5.50
2018-07-17T01:24:58.429Z,4.57
2018-07-17T01:27:26.863Z,5.17
2018-07-17T01:29:55.272Z,4.97
2018-07-17T01:32:23.699Z,3.87
2018-07-17T01:34:52.088Z,4.03
2018-07-17T01:37:20.505Z,5.47
2018-07-17T01:39:49.080Z,4.47
2018-07-17T01:42:17.480Z,4.00
2018-07-17T01:44:45.905Z,4.73
2018-07-17T01:47:14.344Z,4.73
2018-07-17T01:49:42.823Z,4.10
2018-07-17T01:52:11.217Z,4.60
2018-07-17T01:54:39.596Z,3.63
2018-07-17T01:57:07.993Z,5.83
2018-07-17T01:59:36.080Z,5.63
2018-07-17T02:02:04.504Z,5.60
2018-07-17T02:04:32.913Z,5.77
2018-07-17T02:07:01.343Z,7.07
2018-07-17T02:09:29.745Z,6.43
2018-07-17T02:11:58.212Z,5.10
2018-07-17T02:14:26.660Z,7.13
2018-07-17T02:16:55.036Z,9.17
2018-07-17T02:19:23.495Z,6.97
2018-07-17T02:21:51.906Z,4.77
2018-07-17T02:24:20.313Z,3.87
2018-07-17T02:26:48.709Z,5.97
2018-07-17T02:29:17.148Z,4.20
2018-07-17T02:31:45.584Z,3.47
2018-07-17T02:34:13.996Z,4.43
2018-07-17T02:36:42.427Z,4.33
2018-07-17T02:39:10.899Z,4.33
2018-07-17T02:41:39.399Z,3.73
2018-07-17T02:44:07.783Z,4.10
2018-07-17T02:46:36.185Z,4.13
2018-07-17T02:49:04.736Z,3.93
2018-07-17T02:51:33.163Z,4.70
2018-07-17T02:54:01.562Z,3.70
2018-07-17T02:56:29.972Z,3.97
2018-07-17T02:58:58.355Z,3.63
2018-07-17T03:01:26.794Z,3.80
2018-07-17T03:03:55.313Z,4.40
2018-07-17T03:06:23.847Z,4.40
2018-07-17T03:08:52.339Z,4.87
2018-07-17T03:11:20.821Z,3.80
2018-07-17T03:13:49.248Z,4.10
2018-07-17T03:16:17.897Z,4.70
2018-07-17T03:18:46.464Z,4.37
2018-07-17T03:21:14.573Z,3.73
2018-07-17T03:23:43.156Z,4.10
2018-07-17T03:26:11.580Z,4.00
2018-07-17T03:28:40.074Z,5.73
2018-07-17T03:31:08.969Z,4.70
2018-07-17T03:33:37.360Z,4.93
2018-07-17T03:36:05.792Z,5.20
2018-07-17T03:38:34.285Z,5.67
2018-07-17T03:41:02.714Z,4.63
2018-07-17T03:43:31.095Z,4.27
2018-07-17T03:45:59.484Z,6.57
2018-07-17T03:48:27.869Z,5.80
2018-07-17T03:50:56.371Z,4.63
2018-07-17T03:53:24.804Z,5.77
2018-07-17T03:55:53.200Z,8.43
2018-07-17T03:58:21.626Z,5.10
2018-07-17T04:00:50.036Z,6.10
2018-07-17T04:03:18.441Z,6.27
2018-07-17T04:05:46.868Z,8.60
2018-07-17T04:08:15.244Z,5.20
2018-07-17T04:10:43.640Z,6.10
2018-07-17T04:13:12.017Z,6.47
2018-07-17T04:15:40.432Z,5.50
2018-07-17T04:18:09.044Z,6.33
2018-07-17T04:20:37.419Z,5.30
2018-07-17T04:23:06.413Z,5.97
2018-07-17T04:25:34.852Z,4.43
2018-07-17T04:28:03.364Z,4.60
2018-07-17T04:30:31.847Z,6.10
2018-07-17T04:33:00.280Z,4.67
2018-07-17T04:35:28.704Z,6.83
2018-07-17T04:37:57.065Z,5.67
2018-07-17T04:40:25.464Z,5.67
2018-07-17T04:42:53.896Z,4.80
2018-07-17T04:45:22.293Z,4.83
2018-07-17T04:47:50.736Z,5.77
2018-07-17T04:50:19.192Z,10.73
2018-07-17T04:52:47.713Z,6.90
2018-07-17T04:55:16.152Z,16.23
2018-07-17T04:57:44.632Z,6.90
2018-07-17T05:00:13.136Z,5.77
2018-07-17T05:02:41.556Z,17.70
2018-07-17T05:05:09.966Z,6.33
2018-07-17T05:07:38.384Z,5.17
2018-07-17T05:10:07.286Z,5.33
2018-07-17T05:12:35.705Z,5.80
2018-07-17T05:15:04.401Z,6.53
2018-07-17T05:17:32.912Z,12.17
2018-07-17T05:20:01.365Z,7.10
2018-07-17T05:22:29.813Z,8.03
2018-07-17T05:24:58.240Z,5.63
2018-07-17T05:27:26.665Z,5.07
2018-07-17T05:29:55.270Z,4.40
2018-07-17T05:32:23.774Z,6.30
2018-07-17T05:34:52.242Z,5.27
2018-07-17T05:37:20.613Z,7.50
2018-07-17T05:39:49.184Z,4.50
2018-07-17T05:42:17.758Z,4.95
2018-07-17T05:44:46.379Z,7.10
2018-07-17T05:47:14.813Z,4.22
2018-07-17T05:49:43.265Z,5.67
2018-07-17T05:52:11.775Z,5.15
2018-07-17T05:54:40.204Z,5.28
2018-07-17T05:57:08.913Z,4.90
2018-07-17T05:59:37.317Z,4.22
2018-07-17T06:02:05.823Z,6.35
2018-07-17T06:04:34.300Z,6.22
2018-07-17T06:07:02.802Z,7.10
2018-07-17T06:09:31.221Z,4.87
2018-07-17T06:11:59.673Z,7.35
2018-07-17T06:14:28.081Z,5.33
2018-07-17T06:16:56.657Z,6.85
2018-07-17T06:19:25.126Z,4.70
2018-07-17T06:21:53.584Z,4.67
2018-07-17T06:24:22.002Z,4.55
2018-07-17T06:26:50.495Z,8.23
2018-07-17T06:29:18.923Z,6.22
2018-07-17T06:31:47.388Z,5.45
2018-07-17T06:34:15.801Z,6.37
2018-07-17T06:36:44.209Z,5.10
2018-07-17T06:39:12.604Z,7.28
2018-07-17T06:41:40.965Z,7.05
2018-07-17T06:44:09.356Z,4.22
2018-07-17T06:46:37.762Z,8.45
2018-07-17T06:49:06.164Z,5.60
2018-07-17T06:51:34.726Z,10.78
2018-07-17T06:54:03.248Z,6.83
2018-07-17T06:56:31.650Z,7.00
2018-07-17T06:59:00.308Z,7.37
2018-07-17T07:01:28.750Z,6.17
2018-07-17T07:03:57.259Z,6.30
2018-07-17T07:06:25.712Z,11.50
2018-07-17T07:08:54.179Z,13.22
2018-07-17T07:11:22.722Z,7.05
2018-07-17T07:13:51.145Z,6.92
2018-07-17T07:16:19.856Z,7.62
2018-07-17T07:18:48.047Z,8.18
2018-07-17T07:21:16.506Z,7.50
2018-07-17T07:23:44.937Z,7.58
2018-07-17T07:26:13.746Z,7.50
2018-07-17T07:28:42.168Z,12.73
2018-07-17T07:31:10.733Z,11.28
2018-07-17T07:33:39.184Z,8.55
2018-07-17T07:36:07.633Z,7.12
2018-07-17T07:38:36.073Z,9.13
2018-07-17T07:41:04.548Z,8.03
2018-07-17T07:43:33.080Z,9.50
2018-07-17T07:46:01.557Z,8.78
2018-07-17T07:48:29.956Z,7.30
2018-07-17T07:50:58.408Z,12.53
2018-07-17T07:53:26.946Z,9.55
2018-07-17T07:55:55.545Z,9.05
2018-07-17T07:58:23.973Z,10.65
2018-07-17T08:00:52.464Z,11.33
2018-07-17T08:03:20.880Z,12.18
2018-07-17T08:05:49.419Z,10.45
2018-07-17T08:08:17.953Z,9.70
2018-07-17T08:10:46.585Z,8.18
2018-07-17T08:13:14.992Z,7.15
2018-07-17T08:15:43.449Z,7.03
2018-07-17T08:18:11.886Z,10.05
2018-07-17T08:20:40.342Z,8.18
2018-07-17T08:23:08.932Z,9.83
2018-07-17T08:25:37.369Z,8.83
2018-07-17T08:28:06.237Z,10.63
2018-07-17T08:30:34.659Z,10.20
2018-07-17T08:33:03.176Z,8.18
2018-07-17T08:35:31.620Z,11.22
2018-07-17T08:38:00.070Z,10.85
2018-07-17T08:40:28.642Z,8.75
2018-07-17T08:42:57.058Z,10.75
2018-07-17T08:45:25.512Z,12.60
2018-07-17T08:47:54.046Z,12.10
2018-07-17T08:50:22.497Z,12.75
2018-07-17T08:52:50.948Z,12.05
2018-07-17T08:55:19.368Z,12.07
2018-07-17T08:57:47.828Z,7.72
2018-07-17T09:00:16.312Z,12.50
2018-07-17T09:02:44.756Z,13.60
2018-07-17T09:05:13.248Z,15.25
2018-07-17T09:07:41.749Z,9.53
2018-07-17T09:10:10.326Z,9.05
2018-07-17T09:12:38.732Z,11.68
2018-07-17T09:15:07.376Z,12.68
2018-07-17T09:17:35.968Z,10.93
2018-07-17T09:20:05.065Z,9.33
2018-07-17T09:22:33.482Z,9.08
2018-07-17T09:25:01.993Z,9.55
2018-07-17T09:27:30.488Z,10.10
2018-07-17T09:29:59.141Z,11.08
2018-07-17T09:32:27.580Z,10.95
2018-07-17T09:34:56.327Z,16.65
2018-07-17T09:37:24.724Z,11.68
2018-07-17T09:39:53.137Z,10.93
2018-07-17T09:42:21.536Z,10.65
2018-07-17T09:44:50.060Z,10.28
2018-07-17T09:47:18.476Z,7.42
2018-07-17T09:49:46.873Z,7.08
2018-07-17T09:52:15.371Z,9.43
2018-07-17T09:54:44.008Z,8.03
2018-07-17T09:57:12.506Z,8.58
2018-07-17T09:59:41.011Z,11.33
2018-07-17T10:02:14.764Z,9.35
2018-07-17T10:04:43.456Z,11.15
2018-07-17T10:07:11.934Z,7.17
2018-07-17T10:09:40.340Z,9.13
2018-07-17T10:12:08.768Z,5.72
2018-07-17T10:14:37.277Z,8.23
2018-07-17T10:17:05.701Z,6.85
2018-07-17T10:19:34.170Z,7.67
2018-07-17T10:22:02.683Z,8.83
2018-07-17T10:24:31.062Z,7.62
2018-07-17T10:26:59.607Z,9.75
2018-07-17T10:29:28.043Z,9.00
2018-07-17T10:31:56.491Z,5.90
2018-07-17T10:34:24.944Z,6.20
2018-07-17T10:36:53.362Z,8.48
2018-07-17T10:39:21.864Z,8.55
2018-07-17T10:41:50.473Z,8.13
2018-07-17T10:44:18.953Z,7.67
2018-07-17T10:46:47.351Z,3.62
2018-07-17T10:49:15.770Z,8.78
2018-07-17T10:51:44.321Z,7.78
2018-07-17T10:54:12.765Z,3.90
2018-07-17T10:56:41.292Z,4.40
2018-07-17T10:59:09.769Z,5.75
2018-07-17T11:01:38.328Z,6.53
2018-07-17T11:04:06.821Z,4.30
2018-07-17T11:06:35.273Z,6.67
2018-07-17T11:09:04.956Z,4.85
2018-07-17T11:11:33.418Z,8.43
2018-07-17T11:14:02.744Z,5.22
2018-07-17T11:16:31.436Z,3.72
2018-07-17T11:18:59.868Z,8.10
2018-07-17T11:21:28.448Z,3.40
2018-07-17T11:23:56.845Z,5.12
2018-07-17T11:26:25.328Z,3.72
2018-07-17T11:28:53.796Z,4.47
2018-07-17T11:31:22.205Z,5.80
2018-07-17T11:33:50.699Z,6.25
2018-07-17T11:36:19.161Z,5.10
2018-07-17T11:38:48.868Z,6.20
2018-07-17T11:41:17.457Z,4.72
2018-07-17T11:43:45.908Z,8.75
2018-07-17T11:46:14.338Z,6.12
2018-07-17T11:48:42.803Z,4.90
2018-07-17T11:51:11.284Z,3.45
2018-07-17T11:53:39.750Z,4.60
2018-07-17T11:56:08.345Z,5.92
2018-07-17T11:58:36.773Z,4.25
2018-07-17T12:01:05.324Z,4.65
2018-07-17T12:03:33.760Z,5.95
2018-07-17T12:06:02.222Z,2.87
2018-07-17T12:08:30.701Z,6.47
2018-07-17T12:10:59.119Z,3.72
2018-07-17T12:13:27.637Z,2.80
2018-07-17T12:15:56.203Z,4.53
2018-07-17T12:18:24.687Z,7.80
2018-07-17T12:20:53.208Z,4.70
2018-07-17T12:23:21.676Z,3.70
2018-07-17T12:25:50.852Z,9.25
2018-07-17T12:28:19.328Z,6.25
2018-07-17T12:30:47.816Z,4.28
2018-07-17T12:33:16.248Z,6.20
2018-07-17T12:35:44.660Z,4.87
2018-07-17T12:38:13.136Z,5.62
2018-07-17T12:40:41.553Z,4.45
2018-07-17T12:43:10.064Z,6.60
2018-07-17T12:45:38.544Z,6.33
2018-07-17T12:48:06.955Z,3.30
2018-07-17T12:50:35.464Z,6.30
2018-07-17T12:53:03.953Z,4.08
2018-07-17T12:55:32.397Z,8.58
2018-07-17T12:58:00.833Z,4.15
2018-07-17T13:00:29.370Z,5.75
2018-07-17T13:02:57.806Z,3.52
2018-07-17T13:05:26.208Z,9.15
2018-07-17T13:07:54.886Z,6.53
2018-07-17T13:10:23.382Z,4.03
2018-07-17T13:12:51.981Z,2.92
2018-07-17T13:15:20.469Z,3.75
2018-07-17T13:17:48.952Z,5.47
2018-07-17T13:20:17.397Z,3.67
2018-07-17T13:22:45.821Z,6.47
2018-07-17T13:25:14.270Z,4.12
2018-07-17T13:27:42.782Z,4.33
2018-07-17T13:30:11.281Z,5.62
2018-07-17T13:32:40.082Z,3.22
2018-07-17T13:35:08.752Z,4.40
2018-07-17T13:37:37.313Z,6.15
2018-07-17T13:40:05.744Z,5.33
2018-07-17T13:42:34.308Z,3.70
2018-07-17T13:45:02.804Z,3.70
2018-07-17T13:47:31.816Z,6.50
2018-07-17T13:50:00.304Z,6.75
2018-07-17T13:52:28.716Z,3.87
2018-07-17T13:54:57.432Z,3.85
2018-07-17T13:57:25.900Z,4.37
2018-07-17T13:59:54.415Z,8.18
2018-07-17T14:02:23.168Z,3.45
2018-07-17T14:04:51.633Z,8.98
2018-07-17T14:07:20.111Z,3.90
2018-07-17T14:09:48.601Z,5.10
2018-07-17T14:12:17.340Z,3.95
2018-07-17T14:14:45.813Z,5.37
2018-07-17T14:17:14.288Z,4.42
2018-07-17T14:19:42.764Z,4.75
2018-07-17T14:22:11.404Z,7.15
2018-07-17T14:24:39.913Z,4.72
2018-07-17T14:27:08.368Z,6.25
2018-07-17T14:29:36.878Z,4.58
2018-07-17T14:32:05.386Z,5.95
2018-07-17T14:34:33.850Z,7.40
2018-07-17T14:37:02.335Z,4.75
2018-07-17T14:39:30.764Z,4.45
2018-07-17T14:41:59.177Z,5.20
2018-07-17T14:44:27.729Z,4.35
2018-07-17T14:46:56.261Z,5.80
2018-07-17T14:49:24.734Z,3.20
2018-07-17T14:51:53.208Z,5.83
2018-07-17T14:54:21.683Z,5.35
2018-07-17T14:56:50.147Z,5.12
2018-07-17T14:59:18.557Z,6.95
2018-07-17T15:01:46.985Z,3.25
2018-07-17T15:04:15.413Z,5.22
2018-07-17T15:06:43.867Z,3.33
2018-07-17T15:09:12.284Z,3.27
2018-07-17T15:11:40.685Z,3.90
2018-07-17T15:14:09.100Z,4.45
2018-07-17T15:16:37.582Z,6.00
2018-07-17T15:19:06.300Z,5.72
2018-07-17T15:21:34.753Z,3.80
2018-07-17T15:24:03.219Z,4.78
2018-07-17T15:26:31.666Z,3.17
2018-07-17T15:29:00.547Z,5.33
2018-07-17T15:31:28.937Z,5.87
2018-07-17T15:33:57.368Z,5.05
2018-07-17T15:36:25.833Z,6.35
2018-07-17T15:38:54.355Z,5.00
2018-07-17T15:41:22.757Z,4.45
2018-07-17T15:43:51.281Z,6.85
2018-07-17T15:46:19.666Z,5.90
2018-07-17T15:48:48.141Z,6.87
2018-07-17T15:51:16.604Z,3.70
2018-07-17T15:53:45.149Z,6.28
2018-07-17T15:56:13.625Z,6.22
2018-07-17T15:58:42.089Z,6.25
2018-07-17T16:01:10.622Z,4.25
2018-07-17T16:03:39.278Z,4.20
2018-07-17T16:06:07.697Z,6.05
2018-07-17T16:08:36.111Z,4.70
2018-07-17T16:11:04.897Z,3.85
2018-07-17T16:13:33.477Z,3.05
2018-07-17T16:16:01.800Z,4.03
2018-07-17T16:18:30.241Z,6.60
2018-07-17T16:20:58.759Z,6.95
2018-07-17T16:23:27.356Z,5.83
2018-07-17T16:25:55.760Z,4.90
2018-07-17T16:28:24.137Z,5.37
2018-07-17T16:30:52.561Z,6.67
2018-07-17T16:33:20.996Z,5.08
2018-07-17T16:35:49.510Z,6.40
2018-07-17T16:38:17.988Z,5.55
2018-07-17T16:40:46.421Z,5.00
2018-07-17T16:43:14.836Z,7.47
2018-07-17T16:45:43.380Z,5.03
2018-07-17T16:48:11.844Z,7.67
2018-07-17T16:50:40.302Z,7.72
2018-07-17T16:53:08.809Z,6.92
2018-07-17T16:55:37.434Z,5.65
2018-07-17T16:58:06.358Z,6.42
2018-07-17T17:00:34.969Z,5.67
2018-07-17T17:03:04.599Z,6.75
2018-07-17T17:05:33.022Z,8.30
2018-07-17T17:08:01.545Z,7.05
2018-07-17T17:10:30.446Z,5.85
2018-07-17T17:12:58.894Z,5.22
2018-07-17T17:15:27.348Z,7.17
2018-07-17T17:17:55.866Z,7.30
2018-07-17T17:20:24.376Z,4.78
2018-07-17T17:22:52.864Z,7.67
2018-07-17T17:25:21.302Z,5.70
2018-07-17T17:27:49.784Z,7.35
2018-07-17T17:30:18.270Z,8.90
2018-07-17T17:32:46.814Z,7.28
2018-07-17T17:35:15.225Z,11.17
2018-07-17T17:37:43.659Z,5.67
2018-07-17T17:40:12.295Z,5.20
2018-07-17T17:42:40.732Z,14.97
2018-07-17T17:45:09.287Z,16.20
2018-07-17T17:47:37.708Z,12.67
2018-07-17T17:50:06.268Z,7.60
2018-07-17T17:52:34.743Z,9.90
2018-07-17T17:55:03.234Z,10.33
2018-07-17T17:57:31.797Z,6.80
2018-07-17T18:00:00.449Z,7.77
2018-07-17T18:02:28.931Z,6.53
2018-07-17T18:04:57.468Z,8.50
2018-07-17T18:07:25.880Z,6.17
2018-07-17T18:09:54.345Z,7.23
2018-07-17T18:12:22.861Z,7.57
2018-07-17T18:14:51.267Z,7.80
2018-07-17T18:17:19.660Z,8.07
2018-07-17T18:19:48.213Z,8.00
2018-07-17T18:22:19.547Z,9.43
2018-07-17T18:24:48.068Z,8.73
2018-07-17T18:27:17.032Z,7.33
2018-07-17T18:29:45.518Z,8.00
2018-07-17T18:32:14.016Z,7.63
2018-07-17T18:34:42.445Z,7.13
2018-07-17T18:37:11.404Z,8.73
2018-07-17T18:39:39.857Z,10.27
2018-07-17T18:42:08.616Z,6.70
2018-07-17T18:44:37.111Z,10.07
2018-07-17T18:47:05.548Z,6.93
2018-07-17T18:49:34.035Z,7.83
2018-07-17T18:52:02.597Z,10.43
2018-07-17T18:54:31.054Z,8.23
2018-07-17T18:56:59.554Z,10.67
2018-07-17T18:59:28.082Z,8.93
2018-07-17T19:01:59.300Z,8.07
2018-07-17T19:04:27.772Z,6.30
2018-07-17T19:06:56.224Z,7.00
2018-07-17T19:09:24.720Z,7.87
2018-07-17T19:11:53.179Z,5.90
2018-07-17T19:14:22.192Z,8.10
2018-07-17T19:16:50.753Z,6.27
2018-07-17T19:19:19.208Z,6.80
2018-07-17T19:21:47.649Z,6.30
2018-07-17T19:24:16.185Z,6.53
2018-07-17T19:26:44.599Z,6.63
2018-07-17T19:29:13.142Z,6.97
2018-07-17T19:31:41.665Z,7.03
2018-07-17T19:34:10.109Z,6.67
2018-07-17T19:36:38.571Z,10.03
2018-07-17T19:39:09.575Z,8.77
2018-07-17T19:41:38.045Z,6.53
2018-07-17T19:44:06.520Z,6.43
2018-07-17T19:46:35.031Z,6.93
2018-07-17T19:49:03.514Z,8.40
2018-07-17T19:51:31.974Z,7.50
2018-07-17T19:54:00.381Z,9.23
2018-07-17T19:56:28.852Z,7.10
2018-07-17T19:58:57.372Z,7.80
2018-07-17T20:01:25.808Z,8.07
2018-07-17T20:03:54.372Z,8.07
2018-07-17T20:06:22.817Z,8.63
2018-07-17T20:08:51.260Z,7.60
2018-07-17T20:11:19.676Z,7.50
2018-07-17T20:13:47.784Z,8.30
2018-07-17T20:16:16.334Z,7.10
2018-07-17T20:18:44.759Z,7.07
2018-07-17T20:21:13.386Z,6.93
2018-07-17T20:23:41.860Z,7.70
2018-07-17T20:26:10.469Z,7.20
2018-07-17T20:28:38.888Z,7.23
2018-07-17T20:31:07.569Z,10.10
2018-07-17T20:33:36.209Z,8.60
2018-07-17T20:36:05.009Z,7.13
2018-07-17T20:38:33.576Z,9.37
2018-07-17T20:41:02.044Z,8.73
2018-07-17T20:43:30.507Z,8.57
2018-07-17T20:45:59.009Z,9.30
2018-07-17T20:48:27.488Z,8.20
2018-07-17T20:50:55.964Z,10.33
2018-07-17T20:53:24.412Z,10.43
2018-07-17T20:55:52.870Z,8.67
2018-07-17T20:58:21.340Z,9.00
2018-07-17T21:00:49.895Z,9.13
2018-07-17T21:03:18.401Z,7.20
2018-07-17T21:05:46.917Z,10.03
2018-07-17T21:08:15.389Z,7.97
2018-07-17T21:10:43.800Z,8.67
2018-07-17T21:13:12.351Z,9.30
2018-07-17T21:15:40.751Z,8.40
2018-07-17T21:18:09.203Z,7.43
2018-07-17T21:20:37.635Z,9.57
2018-07-17T21:23:06.113Z,10.93
2018-07-17T21:25:34.518Z,8.93
2018-07-17T21:28:02.935Z,4.77
2018-07-17T21:30:31.588Z,6.73
2018-07-17T21:33:00.140Z,4.87
2018-07-17T21:35:28.588Z,7.77
2018-07-17T21:37:57.112Z,8.97
2018-07-17T21:40:25.565Z,6.50
2018-07-17T21:42:54.048Z,4.83
2018-07-17T21:45:22.457Z,4.33
2018-07-17T21:47:50.920Z,6.43
2018-07-17T21:50:19.368Z,5.77
2018-07-17T21:52:47.820Z,4.47
2018-07-17T21:55:16.262Z,6.10
2018-07-17T21:57:44.664Z,7.03
2018-07-17T22:00:13.216Z,5.87
2018-07-17T22:02:41.733Z,5.67
2018-07-17T22:05:10.180Z,5.93
2018-07-17T22:07:38.573Z,3.97
2018-07-17T22:10:07.053Z,5.57
2018-07-17T22:12:35.516Z,4.73
2018-07-17T22:15:04.029Z,5.13
2018-07-17T22:17:32.416Z,3.40
2018-07-17T22:20:00.857Z,5.60
2018-07-17T22:22:29.315Z,4.57
2018-07-17T22:24:57.784Z,4.23
2018-07-17T22:27:26.300Z,5.43
2018-07-17T22:29:54.740Z,6.53
2018-07-17T22:32:23.162Z,4.03
2018-07-17T22:34:51.572Z,3.80
2018-07-17T22:37:20.061Z,4.63
2018-07-17T22:39:48.484Z,5.07
2018-07-17T22:42:16.904Z,6.27
2018-07-17T22:44:45.381Z,5.83
2018-07-17T22:47:13.872Z,3.93
2018-07-17T22:49:42.436Z,6.73
2018-07-17T22:52:10.852Z,4.23
2018-07-17T22:54:45.898Z,5.93
2018-07-17T22:57:13.996Z,5.87
2018-07-17T22:59:42.448Z,8.47
2018-07-17T23:02:11.169Z,5.47
2018-07-17T23:04:39.608Z,5.13
2018-07-17T23:07:08.113Z,5.00
2018-07-17T23:09:36.640Z,4.67
2018-07-17T23:12:05.115Z,5.17
2018-07-17T23:14:33.636Z,5.10
2018-07-17T23:17:02.106Z,6.60
2018-07-17T23:19:30.566Z,6.80
2018-07-17T23:21:59.121Z,7.20
2018-07-17T23:24:27.530Z,5.20
2018-07-17T23:26:55.974Z,5.57
2018-07-17T23:29:24.718Z,6.27
2018-07-17T23:31:53.131Z,7.07
2018-07-17T23:34:21.774Z,6.23
2018-07-17T23:36:50.147Z,5.13
2018-07-17T23:39:18.608Z,6.47
2018-07-17T23:41:47.056Z,6.87
2018-07-17T23:44:15.522Z,6.17
2018-07-17T23:46:43.904Z,6.27
2018-07-17T23:49:17.741Z,5.90
2018-07-17T23:51:46.157Z,6.17
2018-07-17T23:54:14.624Z,7.33
2018-07-17T23:56:43.066Z,5.10
2018-07-17T23:59:11.477Z,7.97
